sensor_id;sensor_type;location;lat;lon;timestamp;P1;durP1;ratioP1;P2;durP2;ratioP2
17848;SDS011;9050;48.746;9.232;2022-09-17T00:02:19;1.00;;;1.00;;
17848;SDS011;9050;48.746;9.232;2022-09-17T00:04:47;0.80;;;0.80;;
17848;SDS011;9050;48.746;9.232;2022-09-17T00:07:14;0.90;;;0.90;;
17848;SDS011;9050;48.746;9.232;2022-09-17T00:09:41;0.97;;;0.97;;
17848;SDS011;9050;48.746;9.232;2022-09-17T00:12:08;1.17;;;1.17;;
17848;SDS011;9050;48.746;9.232;2022-09-17T00:14:36;0.83;;;0.83;;
17848;SDS011;9050;48.746;9.232;2022-09-17T00:17:03;0.87;;;0.87;;
17848;SDS011;9050;48.746;9.232;2022-09-17T00:19:30;0.90;;;0.90;;
17848;SDS011;9050;48.746;9.232;2022-09-17T00:21:56;0.90;;;0.90;;
17848;SDS011;9050;48.746;9.232;2022-09-17T00:24:23;0.80;;;0.80;;
17848;SDS011;9050;48.746;9.232;2022-09-17T00:26:50;0.80;;;0.80;;
17848;SDS011;9050;48.746;9.232;2022-09-17T00:29:17;0.90;;;0.90;;
17848;SDS011;9050;48.746;9.232;2022-09-17T00:31:46;0.70;;;0.70;;
17848;SDS011;9050;48.746;9.232;2022-09-17T00:34:13;0.87;;;0.87;;
17848;SDS011;9050;48.746;9.232;2022-09-17T00:36:39;0.90;;;0.90;;
17848;SDS011;9050;48.746;9.232;2022-09-17T00:39:07;0.80;;;0.80;;
17848;SDS011;9050;48.746;9.232;2022-09-17T00:41:37;0.70;;;0.70;;
17848;SDS011;9050;48.746;9.232;2022-09-17T00:47:09;0.70;;;0.70;;
17848;SDS011;9050;48.746;9.232;2022-09-17T00:49:40;0.70;;;0.70;;
17848;SDS011;9050;48.746;9.232;2022-09-17T00:52:09;0.77;;;0.77;;
17848;SDS011;9050;48.746;9.232;2022-09-17T00:54:40;0.80;;;0.80;;
17848;SDS011;9050;48.746;9.232;2022-09-17T00:57:10;0.70;;;0.70;;
17848;SDS011;9050;48.746;9.232;2022-09-17T00:59:37;0.80;;;0.80;;
17848;SDS011;9050;48.746;9.232;2022-09-17T01:02:04;0.87;;;0.87;;
17848;SDS011;9050;48.746;9.232;2022-09-17T01:04:32;0.90;;;0.90;;
17848;SDS011;9050;48.746;9.232;2022-09-17T01:07:01;0.60;;;0.60;;
17848;SDS011;9050;48.746;9.232;2022-09-17T01:09:36;0.70;;;0.70;;
17848;SDS011;9050;48.746;9.232;2022-09-17T01:12:14;0.93;;;0.93;;
17848;SDS011;9050;48.746;9.232;2022-09-17T01:15:02;0.70;;;0.70;;
17848;SDS011;9050;48.746;9.232;2022-09-17T01:17:38;0.90;;;0.90;;
17848;SDS011;9050;48.746;9.232;2022-09-17T01:20:23;0.93;;;0.93;;
17848;SDS011;9050;48.746;9.232;2022-09-17T01:23:25;0.80;;;0.80;;
17848;SDS011;9050;48.746;9.232;2022-09-17T01:26:13;1.10;;;1.10;;
17848;SDS011;9050;48.746;9.232;2022-09-17T01:28:55;0.90;;;0.90;;
17848;SDS011;9050;48.746;9.232;2022-09-17T01:31:34;0.90;;;0.90;;
17848;SDS011;9050;48.746;9.232;2022-09-17T01:34:09;0.90;;;0.90;;
17848;SDS011;9050;48.746;9.232;2022-09-17T01:36:42;1.00;;;1.00;;
17848;SDS011;9050;48.746;9.232;2022-09-17T01:39:18;1.00;;;1.00;;
17848;SDS011;9050;48.746;9.232;2022-09-17T01:41:55;0.83;;;0.83;;
17848;SDS011;9050;48.746;9.232;2022-09-17T01:44:30;1.13;;;1.13;;
17848;SDS011;9050;48.746;9.232;2022-09-17T01:47:04;0.87;;;0.87;;
17848;SDS011;9050;48.746;9.232;2022-09-17T01:49:36;1.00;;;1.00;;
17848;SDS011;9050;48.746;9.232;2022-09-17T01:52:04;1.00;;;1.00;;
17848;SDS011;9050;48.746;9.232;2022-09-17T01:54:34;0.90;;;0.90;;
17848;SDS011;9050;48.746;9.232;2022-09-17T01:57:06;1.00;;;1.00;;
17848;SDS011;9050;48.746;9.232;2022-09-17T01:59:39;0.93;;;0.93;;
17848;SDS011;9050;48.746;9.232;2022-09-17T02:02:12;0.90;;;0.90;;
17848;SDS011;9050;48.746;9.232;2022-09-17T02:04:42;0.87;;;0.87;;
17848;SDS011;9050;48.746;9.232;2022-09-17T02:07:15;1.00;;;1.00;;
17848;SDS011;9050;48.746;9.232;2022-09-17T02:09:45;0.70;;;0.70;;
17848;SDS011;9050;48.746;9.232;2022-09-17T02:12:19;1.00;;;1.00;;
17848;SDS011;9050;48.746;9.232;2022-09-17T02:14:54;1.10;;;1.10;;
17848;SDS011;9050;48.746;9.232;2022-09-17T02:17:28;0.90;;;0.90;;
17848;SDS011;9050;48.746;9.232;2022-09-17T02:19:59;1.00;;;1.00;;
17848;SDS011;9050;48.746;9.232;2022-09-17T02:22:29;1.10;;;1.10;;
17848;SDS011;9050;48.746;9.232;2022-09-17T02:25:03;0.97;;;0.97;;
17848;SDS011;9050;48.746;9.232;2022-09-17T02:27:35;1.00;;;1.00;;
17848;SDS011;9050;48.746;9.232;2022-09-17T02:30:10;0.70;;;0.70;;
17848;SDS011;9050;48.746;9.232;2022-09-17T02:32:38;0.90;;;0.90;;
17848;SDS011;9050;48.746;9.232;2022-09-17T02:35:06;0.97;;;0.97;;
17848;SDS011;9050;48.746;9.232;2022-09-17T02:37:34;1.10;;;1.10;;
17848;SDS011;9050;48.746;9.232;2022-09-17T02:40:01;1.03;;;1.03;;
17848;SDS011;9050;48.746;9.232;2022-09-17T02:42:30;1.00;;;1.00;;
17848;SDS011;9050;48.746;9.232;2022-09-17T02:45:06;1.00;;;1.00;;
17848;SDS011;9050;48.746;9.232;2022-09-17T02:47:45;0.90;;;0.90;;
17848;SDS011;9050;48.746;9.232;2022-09-17T02:50:26;1.00;;;1.00;;
17848;SDS011;9050;48.746;9.232;2022-09-17T02:53:04;0.97;;;0.97;;
17848;SDS011;9050;48.746;9.232;2022-09-17T02:55:45;0.87;;;0.87;;
17848;SDS011;9050;48.746;9.232;2022-09-17T02:58:18;0.80;;;0.80;;
17848;SDS011;9050;48.746;9.232;2022-09-17T03:00:51;0.80;;;0.80;;
17848;SDS011;9050;48.746;9.232;2022-09-17T03:03:21;1.13;;;1.13;;
17848;SDS011;9050;48.746;9.232;2022-09-17T03:05:53;0.90;;;0.90;;
17848;SDS011;9050;48.746;9.232;2022-09-17T03:08:26;0.90;;;0.90;;
17848;SDS011;9050;48.746;9.232;2022-09-17T03:10:54;0.90;;;0.90;;
17848;SDS011;9050;48.746;9.232;2022-09-17T03:13:21;0.90;;;0.90;;
17848;SDS011;9050;48.746;9.232;2022-09-17T03:15:48;1.00;;;1.00;;
17848;SDS011;9050;48.746;9.232;2022-09-17T03:18:15;0.93;;;0.93;;
17848;SDS011;9050;48.746;9.232;2022-09-17T03:20:43;1.10;;;1.10;;
17848;SDS011;9050;48.746;9.232;2022-09-17T03:23:10;1.00;;;1.00;;
17848;SDS011;9050;48.746;9.232;2022-09-17T03:25:37;0.90;;;0.90;;
17848;SDS011;9050;48.746;9.232;2022-09-17T03:28:04;1.00;;;1.00;;
17848;SDS011;9050;48.746;9.232;2022-09-17T03:30:30;1.10;;;1.10;;
17848;SDS011;9050;48.746;9.232;2022-09-17T03:32:57;0.80;;;0.80;;
17848;SDS011;9050;48.746;9.232;2022-09-17T03:35:24;1.00;;;1.00;;
17848;SDS011;9050;48.746;9.232;2022-09-17T03:37:52;1.10;;;1.10;;
17848;SDS011;9050;48.746;9.232;2022-09-17T03:40:19;1.00;;;1.00;;
17848;SDS011;9050;48.746;9.232;2022-09-17T03:42:46;1.10;;;1.10;;
17848;SDS011;9050;48.746;9.232;2022-09-17T03:45:13;1.00;;;1.00;;
17848;SDS011;9050;48.746;9.232;2022-09-17T03:47:40;1.07;;;1.07;;
17848;SDS011;9050;48.746;9.232;2022-09-17T03:50:07;0.90;;;0.90;;
17848;SDS011;9050;48.746;9.232;2022-09-17T03:52:34;1.00;;;1.00;;
17848;SDS011;9050;48.746;9.232;2022-09-17T03:55:02;0.90;;;0.90;;
17848;SDS011;9050;48.746;9.232;2022-09-17T03:57:30;1.00;;;1.00;;
17848;SDS011;9050;48.746;9.232;2022-09-17T03:59:57;0.90;;;0.90;;
17848;SDS011;9050;48.746;9.232;2022-09-17T04:02:23;1.10;;;1.10;;
17848;SDS011;9050;48.746;9.232;2022-09-17T04:04:50;1.00;;;1.00;;
17848;SDS011;9050;48.746;9.232;2022-09-17T04:07:18;1.40;;;1.40;;
17848;SDS011;9050;48.746;9.232;2022-09-17T04:09:45;0.97;;;0.97;;
17848;SDS011;9050;48.746;9.232;2022-09-17T04:12:13;1.20;;;1.20;;
17848;SDS011;9050;48.746;9.232;2022-09-17T04:14:40;0.70;;;0.70;;
17848;SDS011;9050;48.746;9.232;2022-09-17T04:17:07;1.00;;;1.00;;
17848;SDS011;9050;48.746;9.232;2022-09-17T04:19:34;1.00;;;1.00;;
17848;SDS011;9050;48.746;9.232;2022-09-17T04:22:00;1.10;;;1.10;;
17848;SDS011;9050;48.746;9.232;2022-09-17T04:24:27;1.00;;;1.00;;
17848;SDS011;9050;48.746;9.232;2022-09-17T04:26:54;1.00;;;1.00;;
17848;SDS011;9050;48.746;9.232;2022-09-17T04:29:23;0.80;;;0.80;;
17848;SDS011;9050;48.746;9.232;2022-09-17T04:31:50;1.00;;;1.00;;
17848;SDS011;9050;48.746;9.232;2022-09-17T04:34:16;1.00;;;1.00;;
17848;SDS011;9050;48.746;9.232;2022-09-17T04:36:43;1.10;;;1.10;;
17848;SDS011;9050;48.746;9.232;2022-09-17T04:39:10;1.07;;;1.07;;
17848;SDS011;9050;48.746;9.232;2022-09-17T04:41:37;0.90;;;0.90;;
17848;SDS011;9050;48.746;9.232;2022-09-17T04:44:04;1.00;;;1.00;;
17848;SDS011;9050;48.746;9.232;2022-09-17T04:46:32;0.90;;;0.90;;
17848;SDS011;9050;48.746;9.232;2022-09-17T04:48:59;1.13;;;1.13;;
17848;SDS011;9050;48.746;9.232;2022-09-17T04:51:26;1.03;;;1.03;;
17848;SDS011;9050;48.746;9.232;2022-09-17T04:53:53;0.97;;;0.97;;
17848;SDS011;9050;48.746;9.232;2022-09-17T04:56:19;1.00;;;1.00;;
17848;SDS011;9050;48.746;9.232;2022-09-17T04:58:46;1.10;;;1.10;;
17848;SDS011;9050;48.746;9.232;2022-09-17T05:01:13;0.93;;;0.93;;
17848;SDS011;9050;48.746;9.232;2022-09-17T05:03:44;0.87;;;0.87;;
17848;SDS011;9050;48.746;9.232;2022-09-17T05:06:11;1.00;;;1.00;;
17848;SDS011;9050;48.746;9.232;2022-09-17T05:08:38;0.70;;;0.70;;
17848;SDS011;9050;48.746;9.232;2022-09-17T05:11:04;0.80;;;0.80;;
17848;SDS011;9050;48.746;9.232;2022-09-17T05:13:31;1.07;;;1.07;;
17848;SDS011;9050;48.746;9.232;2022-09-17T05:15:58;0.90;;;0.90;;
17848;SDS011;9050;48.746;9.232;2022-09-17T05:18:25;0.93;;;0.93;;
17848;SDS011;9050;48.746;9.232;2022-09-17T05:20:53;0.97;;;0.97;;
17848;SDS011;9050;48.746;9.232;2022-09-17T05:23:20;0.87;;;0.87;;
17848;SDS011;9050;48.746;9.232;2022-09-17T05:25:47;0.80;;;0.80;;
17848;SDS011;9050;48.746;9.232;2022-09-17T05:28:14;0.90;;;0.90;;
17848;SDS011;9050;48.746;9.232;2022-09-17T05:30:41;0.90;;;0.90;;
17848;SDS011;9050;48.746;9.232;2022-09-17T05:33:08;0.80;;;0.80;;
17848;SDS011;9050;48.746;9.232;2022-09-17T05:35:35;1.00;;;1.00;;
17848;SDS011;9050;48.746;9.232;2022-09-17T05:38:04;1.00;;;1.00;;
17848;SDS011;9050;48.746;9.232;2022-09-17T05:40:31;0.63;;;0.63;;
17848;SDS011;9050;48.746;9.232;2022-09-17T05:42:58;0.77;;;0.77;;
17848;SDS011;9050;48.746;9.232;2022-09-17T05:45:26;0.93;;;0.93;;
17848;SDS011;9050;48.746;9.232;2022-09-17T05:47:54;0.80;;;0.80;;
17848;SDS011;9050;48.746;9.232;2022-09-17T05:50:21;1.00;;;1.00;;
17848;SDS011;9050;48.746;9.232;2022-09-17T05:52:48;0.80;;;0.80;;
17848;SDS011;9050;48.746;9.232;2022-09-17T05:55:17;0.90;;;0.90;;
17848;SDS011;9050;48.746;9.232;2022-09-17T05:57:44;0.80;;;0.80;;
17848;SDS011;9050;48.746;9.232;2022-09-17T06:00:11;0.70;;;0.70;;
17848;SDS011;9050;48.746;9.232;2022-09-17T06:02:39;0.70;;;0.70;;
17848;SDS011;9050;48.746;9.232;2022-09-17T06:05:06;0.57;;;0.57;;
17848;SDS011;9050;48.746;9.232;2022-09-17T06:07:34;0.57;;;0.57;;
17848;SDS011;9050;48.746;9.232;2022-09-17T06:10:01;0.40;;;0.40;;
17848;SDS011;9050;48.746;9.232;2022-09-17T06:12:30;0.40;;;0.40;;
17848;SDS011;9050;48.746;9.232;2022-09-17T06:14:59;0.43;;;0.43;;
17848;SDS011;9050;48.746;9.232;2022-09-17T06:17:26;0.50;;;0.50;;
17848;SDS011;9050;48.746;9.232;2022-09-17T06:19:53;0.80;;;0.80;;
17848;SDS011;9050;48.746;9.232;2022-09-17T06:22:19;0.60;;;0.60;;
17848;SDS011;9050;48.746;9.232;2022-09-17T06:24:47;0.70;;;0.70;;
17848;SDS011;9050;48.746;9.232;2022-09-17T06:27:14;0.70;;;0.70;;
17848;SDS011;9050;48.746;9.232;2022-09-17T06:29:42;0.50;;;0.50;;
17848;SDS011;9050;48.746;9.232;2022-09-17T06:32:09;0.73;;;0.73;;
17848;SDS011;9050;48.746;9.232;2022-09-17T06:34:37;0.70;;;0.70;;
17848;SDS011;9050;48.746;9.232;2022-09-17T06:37:04;0.60;;;0.60;;
17848;SDS011;9050;48.746;9.232;2022-09-17T06:39:31;0.70;;;0.70;;
17848;SDS011;9050;48.746;9.232;2022-09-17T06:41:58;0.60;;;0.60;;
17848;SDS011;9050;48.746;9.232;2022-09-17T06:44:25;0.80;;;0.80;;
17848;SDS011;9050;48.746;9.232;2022-09-17T06:46:53;0.70;;;0.70;;
17848;SDS011;9050;48.746;9.232;2022-09-17T06:49:20;0.60;;;0.60;;
17848;SDS011;9050;48.746;9.232;2022-09-17T06:51:47;0.70;;;0.70;;
17848;SDS011;9050;48.746;9.232;2022-09-17T06:54:13;0.60;;;0.60;;
17848;SDS011;9050;48.746;9.232;2022-09-17T06:56:40;0.63;;;0.63;;
17848;SDS011;9050;48.746;9.232;2022-09-17T06:59:07;0.50;;;0.50;;
17848;SDS011;9050;48.746;9.232;2022-09-17T07:01:34;0.80;;;0.80;;
17848;SDS011;9050;48.746;9.232;2022-09-17T07:04:02;0.93;;;0.93;;
17848;SDS011;9050;48.746;9.232;2022-09-17T07:06:29;1.10;;;1.10;;
17848;SDS011;9050;48.746;9.232;2022-09-17T07:08:56;0.70;;;0.70;;
17848;SDS011;9050;48.746;9.232;2022-09-17T07:11:23;0.70;;;0.70;;
17848;SDS011;9050;48.746;9.232;2022-09-17T07:13:50;0.97;;;0.97;;
17848;SDS011;9050;48.746;9.232;2022-09-17T07:16:17;0.70;;;0.70;;
17848;SDS011;9050;48.746;9.232;2022-09-17T07:18:44;0.70;;;0.70;;
17848;SDS011;9050;48.746;9.232;2022-09-17T07:21:12;0.80;;;0.80;;
17848;SDS011;9050;48.746;9.232;2022-09-17T07:23:38;0.80;;;0.80;;
17848;SDS011;9050;48.746;9.232;2022-09-17T07:26:06;0.90;;;0.90;;
17848;SDS011;9050;48.746;9.232;2022-09-17T07:28:37;0.83;;;0.83;;
17848;SDS011;9050;48.746;9.232;2022-09-17T07:31:04;0.87;;;0.87;;
17848;SDS011;9050;48.746;9.232;2022-09-17T07:33:33;1.10;;;1.10;;
17848;SDS011;9050;48.746;9.232;2022-09-17T07:36:02;0.77;;;0.77;;
17848;SDS011;9050;48.746;9.232;2022-09-17T07:38:32;0.90;;;0.90;;
17848;SDS011;9050;48.746;9.232;2022-09-17T07:40:59;1.10;;;1.10;;
17848;SDS011;9050;48.746;9.232;2022-09-17T07:43:29;0.70;;;0.70;;
17848;SDS011;9050;48.746;9.232;2022-09-17T07:45:57;0.80;;;0.80;;
17848;SDS011;9050;48.746;9.232;2022-09-17T07:48:26;1.00;;;1.00;;
17848;SDS011;9050;48.746;9.232;2022-09-17T07:50:53;0.73;;;0.73;;
17848;SDS011;9050;48.746;9.232;2022-09-17T07:53:20;0.90;;;0.90;;
17848;SDS011;9050;48.746;9.232;2022-09-17T07:55:51;0.90;;;0.90;;
17848;SDS011;9050;48.746;9.232;2022-09-17T07:58:19;0.73;;;0.73;;
17848;SDS011;9050;48.746;9.232;2022-09-17T08:00:46;0.90;;;0.90;;
17848;SDS011;9050;48.746;9.232;2022-09-17T08:03:13;1.00;;;1.00;;
17848;SDS011;9050;48.746;9.232;2022-09-17T08:05:40;0.70;;;0.70;;
17848;SDS011;9050;48.746;9.232;2022-09-17T08:08:07;0.80;;;0.80;;
17848;SDS011;9050;48.746;9.232;2022-09-17T08:10:34;0.70;;;0.70;;
17848;SDS011;9050;48.746;9.232;2022-09-17T08:13:02;0.80;;;0.80;;
17848;SDS011;9050;48.746;9.232;2022-09-17T08:15:29;0.80;;;0.80;;
17848;SDS011;9050;48.746;9.232;2022-09-17T08:17:56;0.73;;;0.73;;
17848;SDS011;9050;48.746;9.232;2022-09-17T08:20:23;0.90;;;0.90;;
17848;SDS011;9050;48.746;9.232;2022-09-17T08:22:56;0.90;;;0.90;;
17848;SDS011;9050;48.746;9.232;2022-09-17T08:25:24;0.70;;;0.70;;
17848;SDS011;9050;48.746;9.232;2022-09-17T08:27:51;0.80;;;0.80;;
17848;SDS011;9050;48.746;9.232;2022-09-17T08:30:21;0.77;;;0.77;;
17848;SDS011;9050;48.746;9.232;2022-09-17T08:32:48;0.90;;;0.90;;
17848;SDS011;9050;48.746;9.232;2022-09-17T08:35:15;0.70;;;0.70;;
17848;SDS011;9050;48.746;9.232;2022-09-17T08:37:41;0.80;;;0.80;;
17848;SDS011;9050;48.746;9.232;2022-09-17T08:40:09;0.63;;;0.63;;
17848;SDS011;9050;48.746;9.232;2022-09-17T08:42:40;0.60;;;0.60;;
17848;SDS011;9050;48.746;9.232;2022-09-17T08:45:18;0.60;;;0.60;;
17848;SDS011;9050;48.746;9.232;2022-09-17T08:47:47;0.60;;;0.60;;
17848;SDS011;9050;48.746;9.232;2022-09-17T08:50:15;0.70;;;0.70;;
17848;SDS011;9050;48.746;9.232;2022-09-17T08:52:59;0.60;;;0.60;;
17848;SDS011;9050;48.746;9.232;2022-09-17T08:55:50;0.70;;;0.70;;
17848;SDS011;9050;48.746;9.232;2022-09-17T08:58:29;0.60;;;0.60;;
17848;SDS011;9050;48.746;9.232;2022-09-17T09:03:58;0.60;;;0.60;;
17848;SDS011;9050;48.746;9.232;2022-09-17T09:06:33;0.50;;;0.50;;
17848;SDS011;9050;48.746;9.232;2022-09-17T09:09:03;0.40;;;0.40;;
17848;SDS011;9050;48.746;9.232;2022-09-17T09:11:33;0.50;;;0.50;;
17848;SDS011;9050;48.746;9.232;2022-09-17T09:14:03;0.50;;;0.50;;
17848;SDS011;9050;48.746;9.232;2022-09-17T09:16:36;0.37;;;0.37;;
17848;SDS011;9050;48.746;9.232;2022-09-17T09:19:10;0.33;;;0.33;;
17848;SDS011;9050;48.746;9.232;2022-09-17T09:21:47;0.40;;;0.40;;
17848;SDS011;9050;48.746;9.232;2022-09-17T09:24:24;0.50;;;0.50;;
17848;SDS011;9050;48.746;9.232;2022-09-17T09:26:57;0.50;;;0.50;;
17848;SDS011;9050;48.746;9.232;2022-09-17T09:29:41;0.40;;;0.40;;
17848;SDS011;9050;48.746;9.232;2022-09-17T09:32:23;0.40;;;0.40;;
17848;SDS011;9050;48.746;9.232;2022-09-17T09:35:10;0.40;;;0.40;;
17848;SDS011;9050;48.746;9.232;2022-09-17T09:37:41;0.53;;;0.53;;
17848;SDS011;9050;48.746;9.232;2022-09-17T09:40:16;0.57;;;0.57;;
17848;SDS011;9050;48.746;9.232;2022-09-17T09:42:50;0.40;;;0.40;;
17848;SDS011;9050;48.746;9.232;2022-09-17T09:45:36;0.60;;;0.60;;
17848;SDS011;9050;48.746;9.232;2022-09-17T09:48:19;0.57;;;0.57;;
17848;SDS011;9050;48.746;9.232;2022-09-17T09:50:59;0.50;;;0.50;;
17848;SDS011;9050;48.746;9.232;2022-09-17T09:53:40;0.50;;;0.50;;
17848;SDS011;9050;48.746;9.232;2022-09-17T09:56:23;0.60;;;0.60;;
17848;SDS011;9050;48.746;9.232;2022-09-17T09:59:02;0.50;;;0.50;;
17848;SDS011;9050;48.746;9.232;2022-09-17T10:01:32;0.50;;;0.50;;
17848;SDS011;9050;48.746;9.232;2022-09-17T10:04:08;0.60;;;0.60;;
17848;SDS011;9050;48.746;9.232;2022-09-17T10:06:42;0.70;;;0.70;;
17848;SDS011;9050;48.746;9.232;2022-09-17T10:09:09;0.50;;;0.50;;
17848;SDS011;9050;48.746;9.232;2022-09-17T10:11:38;0.70;;;0.70;;
17848;SDS011;9050;48.746;9.232;2022-09-17T10:14:13;0.50;;;0.50;;
17848;SDS011;9050;48.746;9.232;2022-09-17T10:16:46;0.40;;;0.40;;
17848;SDS011;9050;48.746;9.232;2022-09-17T10:19:18;0.50;;;0.50;;
17848;SDS011;9050;48.746;9.232;2022-09-17T10:21:49;0.50;;;0.50;;
17848;SDS011;9050;48.746;9.232;2022-09-17T10:24:20;0.60;;;0.60;;
17848;SDS011;9050;48.746;9.232;2022-09-17T10:26:49;0.50;;;0.50;;
17848;SDS011;9050;48.746;9.232;2022-09-17T10:29:17;0.50;;;0.50;;
17848;SDS011;9050;48.746;9.232;2022-09-17T10:31:46;0.50;;;0.50;;
17848;SDS011;9050;48.746;9.232;2022-09-17T10:34:22;0.40;;;0.40;;
17848;SDS011;9050;48.746;9.232;2022-09-17T10:36:51;0.30;;;0.30;;
17848;SDS011;9050;48.746;9.232;2022-09-17T10:39:29;0.50;;;0.50;;
17848;SDS011;9050;48.746;9.232;2022-09-17T10:41:58;0.40;;;0.40;;
17848;SDS011;9050;48.746;9.232;2022-09-17T10:44:27;0.50;;;0.50;;
17848;SDS011;9050;48.746;9.232;2022-09-17T10:46:59;0.50;;;0.50;;
17848;SDS011;9050;48.746;9.232;2022-09-17T10:49:38;0.50;;;0.50;;
17848;SDS011;9050;48.746;9.232;2022-09-17T10:52:07;0.47;;;0.47;;
17848;SDS011;9050;48.746;9.232;2022-09-17T10:55:14;0.50;;;0.50;;
17848;SDS011;9050;48.746;9.232;2022-09-17T10:57:56;0.50;;;0.50;;
17848;SDS011;9050;48.746;9.232;2022-09-17T11:00:31;0.40;;;0.40;;
17848;SDS011;9050;48.746;9.232;2022-09-17T11:03:17;0.30;;;0.30;;
17848;SDS011;9050;48.746;9.232;2022-09-17T11:06:12;0.40;;;0.40;;
17848;SDS011;9050;48.746;9.232;2022-09-17T11:08:51;0.40;;;0.40;;
17848;SDS011;9050;48.746;9.232;2022-09-17T11:11:28;0.40;;;0.40;;
17848;SDS011;9050;48.746;9.232;2022-09-17T11:14:06;0.40;;;0.40;;
17848;SDS011;9050;48.746;9.232;2022-09-17T11:16:44;0.40;;;0.40;;
17848;SDS011;9050;48.746;9.232;2022-09-17T11:19:19;0.40;;;0.40;;
17848;SDS011;9050;48.746;9.232;2022-09-17T11:21:58;0.40;;;0.40;;
17848;SDS011;9050;48.746;9.232;2022-09-17T11:24:47;0.43;;;0.43;;
17848;SDS011;9050;48.746;9.232;2022-09-17T11:27:37;0.50;;;0.50;;
17848;SDS011;9050;48.746;9.232;2022-09-17T11:30:15;0.40;;;0.40;;
17848;SDS011;9050;48.746;9.232;2022-09-17T11:32:48;0.50;;;0.50;;
17848;SDS011;9050;48.746;9.232;2022-09-17T11:35:26;0.50;;;0.50;;
17848;SDS011;9050;48.746;9.232;2022-09-17T11:38:00;0.50;;;0.50;;
17848;SDS011;9050;48.746;9.232;2022-09-17T11:40:34;0.40;;;0.40;;
17848;SDS011;9050;48.746;9.232;2022-09-17T11:43:09;0.40;;;0.40;;
17848;SDS011;9050;48.746;9.232;2022-09-17T11:45:43;0.30;;;0.30;;
17848;SDS011;9050;48.746;9.232;2022-09-17T11:48:18;0.40;;;0.40;;
17848;SDS011;9050;48.746;9.232;2022-09-17T11:50:48;0.33;;;0.33;;
17848;SDS011;9050;48.746;9.232;2022-09-17T11:53:21;0.30;;;0.30;;
17848;SDS011;9050;48.746;9.232;2022-09-17T11:55:54;0.40;;;0.40;;
17848;SDS011;9050;48.746;9.232;2022-09-17T11:58:27;0.30;;;0.30;;
17848;SDS011;9050;48.746;9.232;2022-09-17T12:01:01;0.40;;;0.40;;
17848;SDS011;9050;48.746;9.232;2022-09-17T12:03:31;0.40;;;0.40;;
17848;SDS011;9050;48.746;9.232;2022-09-17T12:06:05;0.50;;;0.50;;
17848;SDS011;9050;48.746;9.232;2022-09-17T12:08:40;0.30;;;0.30;;
17848;SDS011;9050;48.746;9.232;2022-09-17T12:11:11;0.33;;;0.33;;
17848;SDS011;9050;48.746;9.232;2022-09-17T12:13:44;0.40;;;0.40;;
17848;SDS011;9050;48.746;9.232;2022-09-17T12:16:16;0.30;;;0.30;;
17848;SDS011;9050;48.746;9.232;2022-09-17T12:18:50;0.30;;;0.30;;
17848;SDS011;9050;48.746;9.232;2022-09-17T12:21:24;0.30;;;0.30;;
17848;SDS011;9050;48.746;9.232;2022-09-17T12:23:56;0.30;;;0.30;;
17848;SDS011;9050;48.746;9.232;2022-09-17T12:26:33;0.30;;;0.30;;
17848;SDS011;9050;48.746;9.232;2022-09-17T12:29:16;0.40;;;0.40;;
17848;SDS011;9050;48.746;9.232;2022-09-17T12:31:56;0.50;;;0.50;;
17848;SDS011;9050;48.746;9.232;2022-09-17T12:34:31;0.40;;;0.40;;
17848;SDS011;9050;48.746;9.232;2022-09-17T12:37:09;0.40;;;0.40;;
17848;SDS011;9050;48.746;9.232;2022-09-17T12:39:45;0.47;;;0.47;;
17848;SDS011;9050;48.746;9.232;2022-09-17T12:42:36;0.60;;;0.60;;
17848;SDS011;9050;48.746;9.232;2022-09-17T12:45:20;0.60;;;0.60;;
17848;SDS011;9050;48.746;9.232;2022-09-17T12:48:00;0.40;;;0.40;;
17848;SDS011;9050;48.746;9.232;2022-09-17T12:50:53;0.50;;;0.50;;
17848;SDS011;9050;48.746;9.232;2022-09-17T12:53:29;0.50;;;0.50;;
17848;SDS011;9050;48.746;9.232;2022-09-17T12:56:06;0.70;;;0.70;;
17848;SDS011;9050;48.746;9.232;2022-09-17T12:58:46;0.60;;;0.60;;
17848;SDS011;9050;48.746;9.232;2022-09-17T13:01:28;0.60;;;0.60;;
17848;SDS011;9050;48.746;9.232;2022-09-17T13:03:59;0.60;;;0.60;;
17848;SDS011;9050;48.746;9.232;2022-09-17T13:06:44;0.50;;;0.50;;
17848;SDS011;9050;48.746;9.232;2022-09-17T13:09:44;0.50;;;0.50;;
17848;SDS011;9050;48.746;9.232;2022-09-17T13:12:31;0.40;;;0.40;;
17848;SDS011;9050;48.746;9.232;2022-09-17T13:15:05;0.50;;;0.50;;
17848;SDS011;9050;48.746;9.232;2022-09-17T13:18:09;0.60;;;0.60;;
17848;SDS011;9050;48.746;9.232;2022-09-17T13:20:42;0.60;;;0.60;;
17848;SDS011;9050;48.746;9.232;2022-09-17T13:23:32;0.70;;;0.70;;
17848;SDS011;9050;48.746;9.232;2022-09-17T13:26:03;0.60;;;0.60;;
17848;SDS011;9050;48.746;9.232;2022-09-17T13:28:42;0.73;;;0.73;;
17848;SDS011;9050;48.746;9.232;2022-09-17T13:31:10;0.50;;;0.50;;
17848;SDS011;9050;48.746;9.232;2022-09-17T13:33:48;0.60;;;0.60;;
17848;SDS011;9050;48.746;9.232;2022-09-17T13:36:34;0.73;;;0.73;;
17848;SDS011;9050;48.746;9.232;2022-09-17T13:39:38;0.60;;;0.60;;
17848;SDS011;9050;48.746;9.232;2022-09-17T13:42:14;0.70;;;0.70;;
17848;SDS011;9050;48.746;9.232;2022-09-17T13:44:47;0.50;;;0.50;;
17848;SDS011;9050;48.746;9.232;2022-09-17T13:47:21;0.70;;;0.70;;
17848;SDS011;9050;48.746;9.232;2022-09-17T13:49:52;0.70;;;0.70;;
17848;SDS011;9050;48.746;9.232;2022-09-17T13:58:02;0.80;;;0.80;;
17848;SDS011;9050;48.746;9.232;2022-09-17T14:00:54;0.70;;;0.70;;
17848;SDS011;9050;48.746;9.232;2022-09-17T14:15:33;0.60;;;0.60;;
17848;SDS011;9050;48.746;9.232;2022-09-17T14:18:31;0.50;;;0.50;;
17848;SDS011;9050;48.746;9.232;2022-09-17T14:21:03;0.70;;;0.70;;
17848;SDS011;9050;48.746;9.232;2022-09-17T14:23:32;0.57;;;0.57;;
17848;SDS011;9050;48.746;9.232;2022-09-17T14:26:01;0.50;;;0.50;;
17848;SDS011;9050;48.746;9.232;2022-09-17T14:28:35;0.60;;;0.60;;
17848;SDS011;9050;48.746;9.232;2022-09-17T14:31:15;0.50;;;0.50;;
17848;SDS011;9050;48.746;9.232;2022-09-17T14:33:49;0.60;;;0.60;;
17848;SDS011;9050;48.746;9.232;2022-09-17T14:36:17;0.40;;;0.40;;
17848;SDS011;9050;48.746;9.232;2022-09-17T14:38:46;0.40;;;0.40;;
17848;SDS011;9050;48.746;9.232;2022-09-17T14:41:18;0.50;;;0.50;;
17848;SDS011;9050;48.746;9.232;2022-09-17T14:43:49;0.50;;;0.50;;
17848;SDS011;9050;48.746;9.232;2022-09-17T14:46:19;0.60;;;0.60;;
17848;SDS011;9050;48.746;9.232;2022-09-17T14:48:49;0.50;;;0.50;;
17848;SDS011;9050;48.746;9.232;2022-09-17T14:51:23;0.60;;;0.60;;
17848;SDS011;9050;48.746;9.232;2022-09-17T14:54:11;0.50;;;0.50;;
17848;SDS011;9050;48.746;9.232;2022-09-17T14:56:46;0.47;;;0.47;;
17848;SDS011;9050;48.746;9.232;2022-09-17T14:59:22;0.40;;;0.40;;
17848;SDS011;9050;48.746;9.232;2022-09-17T15:02:21;0.30;;;0.30;;
17848;SDS011;9050;48.746;9.232;2022-09-17T15:04:54;0.43;;;0.43;;
17848;SDS011;9050;48.746;9.232;2022-09-17T15:07:20;0.30;;;0.30;;
17848;SDS011;9050;48.746;9.232;2022-09-17T15:09:48;0.40;;;0.40;;
17848;SDS011;9050;48.746;9.232;2022-09-17T15:12:19;0.40;;;0.40;;
17848;SDS011;9050;48.746;9.232;2022-09-17T15:14:53;0.40;;;0.40;;
17848;SDS011;9050;48.746;9.232;2022-09-17T15:17:22;0.50;;;0.50;;
17848;SDS011;9050;48.746;9.232;2022-09-17T15:19:52;0.40;;;0.40;;
17848;SDS011;9050;48.746;9.232;2022-09-17T15:22:24;0.50;;;0.50;;
17848;SDS011;9050;48.746;9.232;2022-09-17T15:24:58;0.50;;;0.50;;
17848;SDS011;9050;48.746;9.232;2022-09-17T15:27:28;0.50;;;0.50;;
17848;SDS011;9050;48.746;9.232;2022-09-17T15:30:08;0.43;;;0.43;;
17848;SDS011;9050;48.746;9.232;2022-09-17T15:32:39;0.60;;;0.60;;
17848;SDS011;9050;48.746;9.232;2022-09-17T15:35:13;0.50;;;0.50;;
17848;SDS011;9050;48.746;9.232;2022-09-17T15:37:46;0.50;;;0.50;;
17848;SDS011;9050;48.746;9.232;2022-09-17T15:40:15;0.60;;;0.60;;
17848;SDS011;9050;48.746;9.232;2022-09-17T15:42:51;0.53;;;0.53;;
17848;SDS011;9050;48.746;9.232;2022-09-17T15:45:21;0.57;;;0.57;;
17848;SDS011;9050;48.746;9.232;2022-09-17T15:47:56;0.60;;;0.60;;
17848;SDS011;9050;48.746;9.232;2022-09-17T15:50:27;0.60;;;0.60;;
17848;SDS011;9050;48.746;9.232;2022-09-17T15:53:12;0.40;;;0.40;;
17848;SDS011;9050;48.746;9.232;2022-09-17T15:55:40;0.50;;;0.50;;